コモドロリバダビア の空港の天気 - METARとTAF

Comodoro Rivadavia Aerodrome ( SAVC / CRD ) - アルゼンチン チュブ州コモドロリバダビア
飛行場実況気象(Metar)
観測時間12/14 03:00 ART (12/14 06:00 UTC)
風向・風速西 3m/s
視程10km以上
天気現象
なし
気温17℃
湿度48%
気圧1005hPa
METARSAVC 140600Z 27006KT CAVOK 17/06 Q1005
過去の天気等 Google飛行場航空写真 Wunderground天気予報

過去48時間のMETAR

飛行場予報(TAF)
発表時間: 12/14 02:00 ART (12/14 05:00 UTC)
予報対象時間: 14日3時 ART ~ 15日3時 ART
風向・風速西 5m/s
視程10km以上
なし
14日6時 ART ~ 14日8時 ART に徐々に
風向・風速南南西 8m/s
TAF SAVC 140500Z 1406/1506 27010KT CAVOK TX23/1418Z TN15/1411Z
BECMG 1409/1411 20015KT